sensor_id;sensor_type;location;lat;lon;timestamp;pressure;altitude;pressure_sealevel;temperature;humidity
79411;BME280;69635;50.964;6.948;2023-05-18T00:01:33;102166.31;;;7.72;65.65
79411;BME280;69635;50.964;6.948;2023-05-18T00:03:59;102170.47;;;7.65;65.78
79411;BME280;69635;50.964;6.948;2023-05-18T00:06:26;102179.38;;;7.69;66.23
79411;BME280;69635;50.964;6.948;2023-05-18T00:08:52;102172.16;;;7.63;66.26
79411;BME280;69635;50.964;6.948;2023-05-18T00:11:17;102171.16;;;7.60;65.26
79411;BME280;69635;50.964;6.948;2023-05-18T00:13:42;102164.03;;;7.56;66.29
79411;BME280;69635;50.964;6.948;2023-05-18T00:16:21;102157.66;;;7.49;67.03
79411;BME280;69635;50.964;6.948;2023-05-18T00:18:46;102167.53;;;7.56;67.08
79411;BME280;69635;50.964;6.948;2023-05-18T00:21:11;102160.50;;;7.55;67.05
79411;BME280;69635;50.964;6.948;2023-05-18T00:23:37;102165.91;;;7.60;67.12
79411;BME280;69635;50.964;6.948;2023-05-18T00:26:03;102167.59;;;7.57;66.94
79411;BME280;69635;50.964;6.948;2023-05-18T00:28:29;102166.59;;;7.54;67.16
79411;BME280;69635;50.964;6.948;2023-05-18T00:30:55;102173.53;;;7.52;66.93
79411;BME280;69635;50.964;6.948;2023-05-18T00:33:21;102171.63;;;7.46;67.16
79411;BME280;69635;50.964;6.948;2023-05-18T00:35:47;102169.69;;;7.41;67.21
79411;BME280;69635;50.964;6.948;2023-05-18T00:38:12;102167.50;;;7.29;67.19
79411;BME280;69635;50.964;6.948;2023-05-18T00:40:41;102165.78;;;7.30;68.10
79411;BME280;69635;50.964;6.948;2023-05-18T00:43:06;102168.50;;;7.33;67.93
79411;BME280;69635;50.964;6.948;2023-05-18T00:45:32;102167.41;;;7.26;68.33
79411;BME280;69635;50.964;6.948;2023-05-18T00:47:57;102166.69;;;7.30;68.47
79411;BME280;69635;50.964;6.948;2023-05-18T00:50:23;102167.56;;;7.31;67.94
79411;BME280;69635;50.964;6.948;2023-05-18T00:52:49;102168.31;;;7.27;69.12
79411;BME280;69635;50.964;6.948;2023-05-18T00:55:16;102169.72;;;7.17;68.39
79411;BME280;69635;50.964;6.948;2023-05-18T00:57:42;102175.91;;;7.18;66.97
79411;BME280;69635;50.964;6.948;2023-05-18T01:00:09;102169.41;;;7.08;67.06
79411;BME280;69635;50.964;6.948;2023-05-18T01:02:38;102178.25;;;7.10;68.62
79411;BME280;69635;50.964;6.948;2023-05-18T01:05:10;102172.00;;;7.07;68.60
79411;BME280;69635;50.964;6.948;2023-05-18T01:07:39;102166.50;;;7.01;67.98
79411;BME280;69635;50.964;6.948;2023-05-18T01:10:11;102171.47;;;6.93;69.00
79411;BME280;69635;50.964;6.948;2023-05-18T01:12:47;102171.63;;;6.96;68.02
79411;BME280;69635;50.964;6.948;2023-05-18T01:15:24;102175.75;;;6.90;68.07
79411;BME280;69635;50.964;6.948;2023-05-18T01:26:23;102171.09;;;6.83;68.67
79411;BME280;69635;50.964;6.948;2023-05-18T01:28:58;102168.28;;;6.77;69.99
79411;BME280;69635;50.964;6.948;2023-05-18T01:31:24;102170.03;;;6.78;69.37
79411;BME280;69635;50.964;6.948;2023-05-18T01:33:50;102168.75;;;6.67;69.29
79411;BME280;69635;50.964;6.948;2023-05-18T01:36:15;102171.50;;;6.70;70.58
79411;BME280;69635;50.964;6.948;2023-05-18T01:38:41;102175.59;;;6.62;70.75
79411;BME280;69635;50.964;6.948;2023-05-18T01:41:20;102177.31;;;6.61;71.21
79411;BME280;69635;50.964;6.948;2023-05-18T01:44:00;102182.69;;;6.64;71.69
79411;BME280;69635;50.964;6.948;2023-05-18T01:46:59;102172.84;;;6.59;71.14
79411;BME280;69635;50.964;6.948;2023-05-18T01:49:48;102179.78;;;6.57;71.34
79411;BME280;69635;50.964;6.948;2023-05-18T01:52:19;102177.88;;;6.53;71.46
79411;BME280;69635;50.964;6.948;2023-05-18T01:54:52;102177.09;;;6.55;70.94
79411;BME280;69635;50.964;6.948;2023-05-18T01:57:22;102177.88;;;6.53;71.96
79411;BME280;69635;50.964;6.948;2023-05-18T01:59:48;102171.69;;;6.52;70.87
79411;BME280;69635;50.964;6.948;2023-05-18T02:02:14;102173.22;;;6.45;70.64
79411;BME280;69635;50.964;6.948;2023-05-18T02:04:39;102172.97;;;6.39;71.26
79411;BME280;69635;50.964;6.948;2023-05-18T02:07:05;102172.75;;;6.33;72.41
79411;BME280;69635;50.964;6.948;2023-05-18T02:09:30;102178.72;;;6.29;72.26
79411;BME280;69635;50.964;6.948;2023-05-18T02:11:55;102173.38;;;6.26;72.90
79411;BME280;69635;50.964;6.948;2023-05-18T02:14:21;102172.16;;;6.18;70.85
79411;BME280;69635;50.964;6.948;2023-05-18T02:16:46;102184.09;;;6.32;72.90
79411;BME280;69635;50.964;6.948;2023-05-18T02:19:17;102177.78;;;6.27;71.88
79411;BME280;69635;50.964;6.948;2023-05-18T02:21:43;102170.38;;;6.17;73.26
79411;BME280;69635;50.964;6.948;2023-05-18T02:24:09;102171.34;;;6.19;72.28
79411;BME280;69635;50.964;6.948;2023-05-18T02:26:35;102179.16;;;6.18;73.48
79411;BME280;69635;50.964;6.948;2023-05-18T02:29:02;102164.94;;;6.13;73.18
79411;BME280;69635;50.964;6.948;2023-05-18T02:31:27;102168.31;;;6.09;72.67
79411;BME280;69635;50.964;6.948;2023-05-18T02:33:53;102178.25;;;6.17;73.54
79411;BME280;69635;50.964;6.948;2023-05-18T02:36:19;102171.03;;;6.12;73.54
79411;BME280;69635;50.964;6.948;2023-05-18T02:38:46;102171.16;;;6.15;73.21
79411;BME280;69635;50.964;6.948;2023-05-18T02:41:13;102170.97;;;6.10;72.67
79411;BME280;69635;50.964;6.948;2023-05-18T02:43:38;102169.06;;;6.06;74.09
79411;BME280;69635;50.964;6.948;2023-05-18T02:46:04;102178.88;;;6.10;73.91
79411;BME280;69635;50.964;6.948;2023-05-18T02:48:29;102150.84;;;5.89;73.91
79411;BME280;69635;50.964;6.948;2023-05-18T02:50:55;102176.09;;;6.07;74.06
79411;BME280;69635;50.964;6.948;2023-05-18T02:53:21;102183.09;;;6.07;74.57
79411;BME280;69635;50.964;6.948;2023-05-18T02:55:47;102169.56;;;5.96;74.23
79411;BME280;69635;50.964;6.948;2023-05-18T02:58:16;102179.53;;;6.05;74.72
79411;BME280;69635;50.964;6.948;2023-05-18T03:00:41;102173.19;;;6.00;74.96
79411;BME280;69635;50.964;6.948;2023-05-18T03:03:07;102173.47;;;5.85;73.66
79411;BME280;69635;50.964;6.948;2023-05-18T03:05:37;102175.75;;;5.98;75.37
79411;BME280;69635;50.964;6.948;2023-05-18T03:08:03;102177.00;;;5.86;75.69
79411;BME280;69635;50.964;6.948;2023-05-18T03:10:29;102180.66;;;5.89;75.73
79411;BME280;69635;50.964;6.948;2023-05-18T03:12:54;102180.66;;;5.89;75.76
79411;BME280;69635;50.964;6.948;2023-05-18T03:15:20;102180.44;;;5.85;75.64
79411;BME280;69635;50.964;6.948;2023-05-18T03:17:46;102179.50;;;5.83;76.00
79411;BME280;69635;50.964;6.948;2023-05-18T03:20:11;102166.75;;;5.71;76.22
79411;BME280;69635;50.964;6.948;2023-05-18T03:22:38;102168.56;;;5.74;76.47
79411;BME280;69635;50.964;6.948;2023-05-18T03:25:05;102171.84;;;5.68;76.23
79411;BME280;69635;50.964;6.948;2023-05-18T03:27:30;102182.59;;;5.74;76.29
79411;BME280;69635;50.964;6.948;2023-05-18T03:29:59;102183.31;;;5.70;76.13
79411;BME280;69635;50.964;6.948;2023-05-18T03:32:24;102184.84;;;5.65;76.28
79411;BME280;69635;50.964;6.948;2023-05-18T03:34:50;102186.53;;;5.63;76.58
79411;BME280;69635;50.964;6.948;2023-05-18T03:37:17;102186.56;;;5.65;76.46
79411;BME280;69635;50.964;6.948;2023-05-18T03:39:42;102194.41;;;5.63;75.87
79411;BME280;69635;50.964;6.948;2023-05-18T03:42:08;102192.63;;;5.62;75.95
79411;BME280;69635;50.964;6.948;2023-05-18T03:44:33;102195.19;;;5.61;76.53
79411;BME280;69635;50.964;6.948;2023-05-18T03:46:59;102177.25;;;5.51;75.78
79411;BME280;69635;50.964;6.948;2023-05-18T03:49:24;102188.72;;;5.53;75.92
79411;BME280;69635;50.964;6.948;2023-05-18T03:51:50;102179.13;;;5.53;76.57
79411;BME280;69635;50.964;6.948;2023-05-18T03:54:18;102175.59;;;5.53;76.23
79411;BME280;69635;50.964;6.948;2023-05-18T03:56:44;102185.13;;;5.51;75.52
79411;BME280;69635;50.964;6.948;2023-05-18T03:59:09;102194.91;;;5.55;75.92
79411;BME280;69635;50.964;6.948;2023-05-18T04:01:34;102185.19;;;5.52;75.74
79411;BME280;69635;50.964;6.948;2023-05-18T04:04:00;102189.84;;;5.59;75.79
79411;BME280;69635;50.964;6.948;2023-05-18T04:06:25;102192.22;;;5.53;75.43
79411;BME280;69635;50.964;6.948;2023-05-18T04:08:51;102191.59;;;5.59;75.86
79411;BME280;69635;50.964;6.948;2023-05-18T04:11:17;102197.72;;;5.59;75.67
79411;BME280;69635;50.964;6.948;2023-05-18T04:13:42;102200.72;;;5.68;75.99
79411;BME280;69635;50.964;6.948;2023-05-18T04:16:08;102200.72;;;5.68;75.88
79411;BME280;69635;50.964;6.948;2023-05-18T04:18:40;102197.28;;;5.69;75.69
79411;BME280;69635;50.964;6.948;2023-05-18T04:21:06;102184.22;;;5.71;75.71
79411;BME280;69635;50.964;6.948;2023-05-18T04:23:32;102200.34;;;5.80;74.68
79411;BME280;69635;50.964;6.948;2023-05-18T04:26:05;102195.03;;;5.78;74.67
79411;BME280;69635;50.964;6.948;2023-05-18T04:28:31;102197.91;;;5.84;74.25
79411;BME280;69635;50.964;6.948;2023-05-18T04:30:57;102197.06;;;5.84;75.04
79411;BME280;69635;50.964;6.948;2023-05-18T04:33:22;102201.41;;;5.83;74.82
79411;BME280;69635;50.964;6.948;2023-05-18T04:35:50;102205.34;;;5.94;74.07
79411;BME280;69635;50.964;6.948;2023-05-18T04:38:19;102203.69;;;5.96;73.73
79411;BME280;69635;50.964;6.948;2023-05-18T04:40:48;102200.22;;;5.97;73.57
79411;BME280;69635;50.964;6.948;2023-05-18T04:43:15;102202.97;;;6.00;73.25
79411;BME280;69635;50.964;6.948;2023-05-18T04:45:42;102210.34;;;6.09;73.09
79411;BME280;69635;50.964;6.948;2023-05-18T04:48:10;102202.44;;;6.09;73.54
79411;BME280;69635;50.964;6.948;2023-05-18T04:50:36;102211.19;;;6.09;73.40
79411;BME280;69635;50.964;6.948;2023-05-18T04:53:01;102207.81;;;6.12;73.58
79411;BME280;69635;50.964;6.948;2023-05-18T04:55:28;102214.19;;;6.18;73.13
79411;BME280;69635;50.964;6.948;2023-05-18T04:57:55;102206.50;;;6.23;72.02
79411;BME280;69635;50.964;6.948;2023-05-18T05:00:25;102208.34;;;6.25;72.56
79411;BME280;69635;50.964;6.948;2023-05-18T05:02:51;102221.97;;;6.37;72.70
79411;BME280;69635;50.964;6.948;2023-05-18T05:05:16;102220.22;;;6.38;72.27
79411;BME280;69635;50.964;6.948;2023-05-18T05:07:43;102217.78;;;6.42;72.34
79411;BME280;69635;50.964;6.948;2023-05-18T05:10:08;102217.78;;;6.42;71.68
79411;BME280;69635;50.964;6.948;2023-05-18T05:12:37;102215.97;;;6.41;71.55
79411;BME280;69635;50.964;6.948;2023-05-18T05:15:03;102204.72;;;6.44;71.61
79411;BME280;69635;50.964;6.948;2023-05-18T05:17:29;102217.94;;;6.47;72.23
79411;BME280;69635;50.964;6.948;2023-05-18T05:19:54;102222.00;;;6.61;71.73
79411;BME280;69635;50.964;6.948;2023-05-18T05:22:19;102230.75;;;6.60;71.13
79411;BME280;69635;50.964;6.948;2023-05-18T05:24:45;102228.47;;;6.69;71.49
79411;BME280;69635;50.964;6.948;2023-05-18T05:27:10;102218.00;;;6.71;69.97
79411;BME280;69635;50.964;6.948;2023-05-18T05:29:36;102224.38;;;6.77;70.22
79411;BME280;69635;50.964;6.948;2023-05-18T05:32:01;102226.56;;;6.89;70.63
79411;BME280;69635;50.964;6.948;2023-05-18T05:34:26;102227.81;;;6.98;69.37
79411;BME280;69635;50.964;6.948;2023-05-18T05:36:52;102215.75;;;7.05;69.72
79411;BME280;69635;50.964;6.948;2023-05-18T05:39:17;102220.06;;;7.03;68.47
79411;BME280;69635;50.964;6.948;2023-05-18T05:41:43;102232.38;;;7.04;68.51
79411;BME280;69635;50.964;6.948;2023-05-18T05:44:08;102231.94;;;7.15;67.79
79411;BME280;69635;50.964;6.948;2023-05-18T05:46:33;102234.84;;;7.23;67.24
79411;BME280;69635;50.964;6.948;2023-05-18T05:48:59;102241.09;;;7.26;68.12
79411;BME280;69635;50.964;6.948;2023-05-18T05:51:26;102235.44;;;7.39;67.54
79411;BME280;69635;50.964;6.948;2023-05-18T05:53:51;102230.31;;;7.44;66.98
79411;BME280;69635;50.964;6.948;2023-05-18T05:56:16;102234.69;;;7.43;66.99
79411;BME280;69635;50.964;6.948;2023-05-18T05:58:42;102231.47;;;7.52;66.52
79411;BME280;69635;50.964;6.948;2023-05-18T06:01:08;102231.78;;;7.61;66.28
79411;BME280;69635;50.964;6.948;2023-05-18T06:03:33;102229.22;;;7.63;65.66
79411;BME280;69635;50.964;6.948;2023-05-18T06:05:59;102229.38;;;7.67;65.86
79411;BME280;69635;50.964;6.948;2023-05-18T06:08:24;102230.41;;;7.72;65.06
79411;BME280;69635;50.964;6.948;2023-05-18T06:10:50;102234.16;;;7.79;66.03
79411;BME280;69635;50.964;6.948;2023-05-18T06:13:15;102238.78;;;7.86;66.04
79411;BME280;69635;50.964;6.948;2023-05-18T06:15:41;102237.16;;;7.89;65.35
79411;BME280;69635;50.964;6.948;2023-05-18T06:18:07;102231.31;;;7.99;64.92
79411;BME280;69635;50.964;6.948;2023-05-18T06:20:32;102235.25;;;8.12;64.52
79411;BME280;69635;50.964;6.948;2023-05-18T06:22:58;102236.25;;;8.15;63.87
79411;BME280;69635;50.964;6.948;2023-05-18T06:25:23;102237.28;;;8.20;65.02
79411;BME280;69635;50.964;6.948;2023-05-18T06:27:48;102233.28;;;8.31;63.79
79411;BME280;69635;50.964;6.948;2023-05-18T06:30:14;102233.31;;;8.33;63.06
79411;BME280;69635;50.964;6.948;2023-05-18T06:32:40;102243.13;;;8.37;63.73
79411;BME280;69635;50.964;6.948;2023-05-18T06:35:06;102249.38;;;8.40;63.92
79411;BME280;69635;50.964;6.948;2023-05-18T06:37:32;102250.56;;;8.50;63.83
79411;BME280;69635;50.964;6.948;2023-05-18T06:39:57;102248.34;;;8.64;63.89
79411;BME280;69635;50.964;6.948;2023-05-18T06:42:23;102248.69;;;8.76;62.25
79411;BME280;69635;50.964;6.948;2023-05-18T06:44:48;102249.63;;;8.78;63.01
79411;BME280;69635;50.964;6.948;2023-05-18T06:47:15;102261.41;;;8.89;63.39
79411;BME280;69635;50.964;6.948;2023-05-18T06:49:41;102248.25;;;8.90;63.69
79411;BME280;69635;50.964;6.948;2023-05-18T06:52:06;102251.88;;;8.94;61.96
79411;BME280;69635;50.964;6.948;2023-05-18T06:54:34;102247.88;;;9.08;61.23
79411;BME280;69635;50.964;6.948;2023-05-18T06:57:00;102252.06;;;9.00;60.98
79411;BME280;69635;50.964;6.948;2023-05-18T06:59:25;102252.41;;;9.12;61.88
79411;BME280;69635;50.964;6.948;2023-05-18T07:01:51;102255.91;;;9.11;60.95
79411;BME280;69635;50.964;6.948;2023-05-18T07:04:16;102249.91;;;9.16;61.74
79411;BME280;69635;50.964;6.948;2023-05-18T07:06:43;102250.47;;;9.36;61.34
79411;BME280;69635;50.964;6.948;2023-05-18T07:09:11;102254.19;;;9.44;60.38
79411;BME280;69635;50.964;6.948;2023-05-18T07:11:37;102249.88;;;9.47;61.42
79411;BME280;69635;50.964;6.948;2023-05-18T07:14:04;102248.38;;;9.57;59.33
79411;BME280;69635;50.964;6.948;2023-05-18T07:16:30;102252.22;;;9.68;60.24
79411;BME280;69635;50.964;6.948;2023-05-18T07:18:56;102242.94;;;9.85;59.55
79411;BME280;69635;50.964;6.948;2023-05-18T07:21:22;102247.56;;;9.94;59.23
79411;BME280;69635;50.964;6.948;2023-05-18T07:23:48;102250.09;;;9.89;57.57
79411;BME280;69635;50.964;6.948;2023-05-18T07:26:13;102246.63;;;9.92;59.14
79411;BME280;69635;50.964;6.948;2023-05-18T07:28:38;102250.34;;;9.98;59.44
79411;BME280;69635;50.964;6.948;2023-05-18T07:31:04;102250.50;;;10.06;58.51
79411;BME280;69635;50.964;6.948;2023-05-18T07:33:30;102256.13;;;10.16;58.09
79411;BME280;69635;50.964;6.948;2023-05-18T07:35:55;102246.63;;;10.26;58.22
79411;BME280;69635;50.964;6.948;2023-05-18T07:38:21;102242.06;;;10.57;58.02
